sensor_id;sensor_type;location;lat;lon;timestamp;pressure;altitude;pressure_sealevel;temperature;humidity
38616;BME280;24370;51.986;4.666;2023-03-04T00:02:04;102812.78;;;13.52;41.55
38616;BME280;24370;51.986;4.666;2023-03-04T00:04:30;102819.34;;;13.12;42.27
38616;BME280;24370;51.986;4.666;2023-03-04T00:06:55;102830.50;;;12.26;44.84
38616;BME280;24370;51.986;4.666;2023-03-04T00:09:21;102821.06;;;13.06;42.41
38616;BME280;24370;51.986;4.666;2023-03-04T00:11:46;102823.97;;;12.59;43.54
38616;BME280;24370;51.986;4.666;2023-03-04T00:14:12;102826.00;;;12.82;43.59
38616;BME280;24370;51.986;4.666;2023-03-04T00:16:37;102826.28;;;12.39;44.60
38616;BME280;24370;51.986;4.666;2023-03-04T00:19:04;102825.88;;;12.72;43.49
38616;BME280;24370;51.986;4.666;2023-03-04T00:21:29;102825.84;;;12.69;43.78
38616;BME280;24370;51.986;4.666;2023-03-04T00:23:55;102822.00;;;12.43;44.32
38616;BME280;24370;51.986;4.666;2023-03-04T00:26:21;102816.84;;;13.24;42.53
38616;BME280;24370;51.986;4.666;2023-03-04T00:28:46;102823.34;;;12.80;43.33
38616;BME280;24370;51.986;4.666;2023-03-04T00:31:12;102821.53;;;12.75;43.97
38616;BME280;24370;51.986;4.666;2023-03-04T00:33:38;102822.03;;;12.46;43.99
38616;BME280;24370;51.986;4.666;2023-03-04T00:36:04;102826.53;;;12.54;44.55
38616;BME280;24370;51.986;4.666;2023-03-04T00:38:30;102820.31;;;12.46;44.08
38616;BME280;24370;51.986;4.666;2023-03-04T00:40:55;102815.75;;;13.03;43.44
38616;BME280;24370;51.986;4.666;2023-03-04T00:43:21;102823.94;;;12.56;43.69
38616;BME280;24370;51.986;4.666;2023-03-04T00:45:47;102825.94;;;12.79;43.91
38616;BME280;24370;51.986;4.666;2023-03-04T00:48:12;102824.72;;;12.50;44.11
38616;BME280;24370;51.986;4.666;2023-03-04T00:50:38;102808.94;;;13.21;42.91
38616;BME280;24370;51.986;4.666;2023-03-04T00:53:04;102817.81;;;13.32;42.85
38616;BME280;24370;51.986;4.666;2023-03-04T00:55:30;102813.88;;;12.93;43.70
38616;BME280;24370;51.986;4.666;2023-03-04T00:57:55;102809.53;;;13.83;42.06
38616;BME280;24370;51.986;4.666;2023-03-04T01:00:21;102811.97;;;13.58;41.94
38616;BME280;24370;51.986;4.666;2023-03-04T01:02:46;102812.50;;;13.26;42.99
38616;BME280;24370;51.986;4.666;2023-03-04T01:05:12;102820.44;;;12.57;44.26
38616;BME280;24370;51.986;4.666;2023-03-04T01:07:37;102816.16;;;13.40;42.55
38616;BME280;24370;51.986;4.666;2023-03-04T01:10:04;102814.75;;;13.77;42.42
38616;BME280;24370;51.986;4.666;2023-03-04T01:12:30;102820.28;;;14.14;41.32
38616;BME280;24370;51.986;4.666;2023-03-04T01:14:55;102824.66;;;12.47;45.14
38616;BME280;24370;51.986;4.666;2023-03-04T01:17:20;102820.28;;;13.18;42.98
38616;BME280;24370;51.986;4.666;2023-03-04T01:19:46;102823.38;;;12.82;44.52
38616;BME280;24370;51.986;4.666;2023-03-04T01:22:11;102808.09;;;13.23;43.21
38616;BME280;24370;51.986;4.666;2023-03-04T01:24:39;102815.50;;;12.16;45.29
38616;BME280;24370;51.986;4.666;2023-03-04T01:27:04;102811.72;;;11.98;45.64
38616;BME280;24370;51.986;4.666;2023-03-04T01:29:30;102811.69;;;11.95;45.72
38616;BME280;24370;51.986;4.666;2023-03-04T01:31:55;102804.50;;;11.85;46.24
38616;BME280;24370;51.986;4.666;2023-03-04T01:34:20;102792.31;;;12.45;44.53
38616;BME280;24370;51.986;4.666;2023-03-04T01:36:46;102789.06;;;13.46;42.23
38616;BME280;24370;51.986;4.666;2023-03-04T01:39:11;102784.53;;;13.31;42.46
38616;BME280;24370;51.986;4.666;2023-03-04T01:41:37;102785.16;;;13.04;43.70
38616;BME280;24370;51.986;4.666;2023-03-04T01:44:02;102785.19;;;14.08;41.48
38616;BME280;24370;51.986;4.666;2023-03-04T01:46:29;102785.28;;;14.27;41.02
38616;BME280;24370;51.986;4.666;2023-03-04T01:48:55;102785.41;;;14.52;40.63
38616;BME280;24370;51.986;4.666;2023-03-04T01:51:21;102782.19;;;13.61;42.04
38616;BME280;24370;51.986;4.666;2023-03-04T01:53:48;102782.22;;;13.62;42.28
38616;BME280;24370;51.986;4.666;2023-03-04T01:56:34;102774.66;;;13.05;43.25
38616;BME280;24370;51.986;4.666;2023-03-04T01:59:13;102769.72;;;13.38;42.76
38616;BME280;24370;51.986;4.666;2023-03-04T02:01:40;102766.44;;;13.61;42.61
38616;BME280;24370;51.986;4.666;2023-03-04T02:04:08;102752.75;;;13.03;43.06
38616;BME280;24370;51.986;4.666;2023-03-04T02:06:35;102756.69;;;12.64;44.38
38616;BME280;24370;51.986;4.666;2023-03-04T02:09:02;102753.38;;;12.81;43.29
38616;BME280;24370;51.986;4.666;2023-03-04T02:11:27;102760.44;;;12.16;44.75
38616;BME280;24370;51.986;4.666;2023-03-04T02:13:53;102752.97;;;13.28;42.65
38616;BME280;24370;51.986;4.666;2023-03-04T02:16:18;102745.81;;;14.24;40.67
38616;BME280;24370;51.986;4.666;2023-03-04T02:18:44;102749.06;;;13.81;41.33
38616;BME280;24370;51.986;4.666;2023-03-04T02:21:24;102739.50;;;13.94;41.63
38616;BME280;24370;51.986;4.666;2023-03-04T02:26:31;102738.28;;;13.46;42.80
38616;BME280;24370;51.986;4.666;2023-03-04T02:28:59;102736.72;;;13.69;42.16
38616;BME280;24370;51.986;4.666;2023-03-04T02:33:51;102743.03;;;12.21;44.77
38616;BME280;24370;51.986;4.666;2023-03-04T02:36:18;102739.47;;;12.16;44.65
38616;BME280;24370;51.986;4.666;2023-03-04T02:38:43;102736.34;;;12.45;44.76
38616;BME280;24370;51.986;4.666;2023-03-04T02:41:14;102731.94;;;13.25;42.50
38616;BME280;24370;51.986;4.666;2023-03-04T02:43:40;102723.34;;;13.35;42.59
38616;BME280;24370;51.986;4.666;2023-03-04T02:46:10;102725.97;;;13.37;42.13
38616;BME280;24370;51.986;4.666;2023-03-04T02:48:36;102726.09;;;13.57;41.36
38616;BME280;24370;51.986;4.666;2023-03-04T02:51:02;102717.78;;;13.07;41.86
38616;BME280;24370;51.986;4.666;2023-03-04T02:53:27;102716.38;;;12.54;44.18
38616;BME280;24370;51.986;4.666;2023-03-04T02:55:52;102722.28;;;12.36;43.71
38616;BME280;24370;51.986;4.666;2023-03-04T02:58:18;102714.03;;;12.81;43.04
38616;BME280;24370;51.986;4.666;2023-03-04T03:00:43;102713.19;;;12.85;43.10
38616;BME280;24370;51.986;4.666;2023-03-04T03:03:09;102711.50;;;12.90;42.76
38616;BME280;24370;51.986;4.666;2023-03-04T03:05:36;102714.72;;;12.63;43.01
38616;BME280;24370;51.986;4.666;2023-03-04T03:08:02;102718.88;;;12.47;43.70
38616;BME280;24370;51.986;4.666;2023-03-04T03:10:28;102712.97;;;13.55;41.68
38616;BME280;24370;51.986;4.666;2023-03-04T03:12:53;102715.03;;;12.95;42.67
38616;BME280;24370;51.986;4.666;2023-03-04T03:15:19;102716.28;;;12.48;43.67
38616;BME280;24370;51.986;4.666;2023-03-04T03:17:44;102711.56;;;12.99;42.51
38616;BME280;24370;51.986;4.666;2023-03-04T03:20:11;102709.25;;;13.30;42.07
38616;BME280;24370;51.986;4.666;2023-03-04T03:22:37;102712.75;;;13.32;42.57
38616;BME280;24370;51.986;4.666;2023-03-04T03:25:04;102719.81;;;13.36;41.76
38616;BME280;24370;51.986;4.666;2023-03-04T03:27:30;102716.28;;;13.34;42.61
38616;BME280;24370;51.986;4.666;2023-03-04T03:29:55;102712.34;;;13.89;41.35
38616;BME280;24370;51.986;4.666;2023-03-04T03:32:21;102709.53;;;13.64;41.78
38616;BME280;24370;51.986;4.666;2023-03-04T03:34:46;102702.59;;;13.72;41.55
38616;BME280;24370;51.986;4.666;2023-03-04T03:37:12;102705.75;;;13.31;42.48
38616;BME280;24370;51.986;4.666;2023-03-04T03:39:38;102701.03;;;14.05;41.16
38616;BME280;24370;51.986;4.666;2023-03-04T03:42:03;102701.25;;;13.15;42.85
38616;BME280;24370;51.986;4.666;2023-03-04T03:44:28;102704.16;;;12.60;44.31
38616;BME280;24370;51.986;4.666;2023-03-04T03:46:54;102707.59;;;12.54;44.57
38616;BME280;24370;51.986;4.666;2023-03-04T03:49:19;102712.38;;;12.92;43.30
38616;BME280;24370;51.986;4.666;2023-03-04T03:51:44;102711.28;;;12.71;44.46
38616;BME280;24370;51.986;4.666;2023-03-04T03:54:10;102704.34;;;12.73;43.41
38616;BME280;24370;51.986;4.666;2023-03-04T03:56:35;102705.22;;;12.76;43.74
38616;BME280;24370;51.986;4.666;2023-03-04T03:59:00;102712.16;;;12.70;43.44
38616;BME280;24370;51.986;4.666;2023-03-04T04:01:26;102717.22;;;11.89;45.48
38616;BME280;24370;51.986;4.666;2023-03-04T04:03:51;102717.94;;;13.23;43.25
38616;BME280;24370;51.986;4.666;2023-03-04T04:06:17;102712.91;;;12.59;44.17
38616;BME280;24370;51.986;4.666;2023-03-04T04:08:42;102712.59;;;12.32;44.70
38616;BME280;24370;51.986;4.666;2023-03-04T04:11:11;102722.13;;;11.67;46.37
38616;BME280;24370;51.986;4.666;2023-03-04T04:13:37;102715.44;;;11.31;46.52
38616;BME280;24370;51.986;4.666;2023-03-04T04:16:03;102719.75;;;11.83;45.45
38616;BME280;24370;51.986;4.666;2023-03-04T04:18:28;102720.16;;;12.08;45.13
38616;BME280;24370;51.986;4.666;2023-03-04T04:20:54;102716.28;;;12.48;44.87
38616;BME280;24370;51.986;4.666;2023-03-04T04:23:19;102722.81;;;11.54;46.32
38616;BME280;24370;51.986;4.666;2023-03-04T04:25:45;102702.03;;;13.07;43.60
38616;BME280;24370;51.986;4.666;2023-03-04T04:28:10;102706.97;;;12.77;44.05
38616;BME280;24370;51.986;4.666;2023-03-04T04:30:36;102717.06;;;12.39;43.79
38616;BME280;24370;51.986;4.666;2023-03-04T04:33:02;102710.66;;;12.94;43.31
38616;BME280;24370;51.986;4.666;2023-03-04T04:35:31;102717.47;;;12.77;43.37
38616;BME280;24370;51.986;4.666;2023-03-04T04:37:57;102725.16;;;11.38;46.50
38616;BME280;24370;51.986;4.666;2023-03-04T04:40:23;102715.28;;;12.38;44.29
38616;BME280;24370;51.986;4.666;2023-03-04T04:42:48;102713.78;;;12.59;43.00
38616;BME280;24370;51.986;4.666;2023-03-04T04:45:14;102720.19;;;12.11;45.11
38616;BME280;24370;51.986;4.666;2023-03-04T04:47:39;102719.19;;;11.46;45.84
38616;BME280;24370;51.986;4.666;2023-03-04T04:50:05;102722.38;;;11.83;45.45
38616;BME280;24370;51.986;4.666;2023-03-04T04:52:31;102724.69;;;11.64;45.61
38616;BME280;24370;51.986;4.666;2023-03-04T04:54:56;102721.06;;;11.56;45.81
38616;BME280;24370;51.986;4.666;2023-03-04T04:57:22;102732.06;;;10.86;47.09
38616;BME280;24370;51.986;4.666;2023-03-04T04:59:47;102723.44;;;10.90;46.83
38616;BME280;24370;51.986;4.666;2023-03-04T05:02:12;102726.72;;;11.29;46.89
38616;BME280;24370;51.986;4.666;2023-03-04T05:04:38;102729.59;;;11.98;45.49
38616;BME280;24370;51.986;4.666;2023-03-04T05:07:03;102731.16;;;11.88;44.58
38616;BME280;24370;51.986;4.666;2023-03-04T05:09:29;102723.88;;;11.68;45.73
38616;BME280;24370;51.986;4.666;2023-03-04T05:11:55;102715.78;;;12.82;43.35
38616;BME280;24370;51.986;4.666;2023-03-04T05:14:20;102716.97;;;12.33;44.25
38616;BME280;24370;51.986;4.666;2023-03-04T05:16:46;102725.41;;;12.11;44.21
38616;BME280;24370;51.986;4.666;2023-03-04T05:19:12;102725.38;;;12.81;43.21
38616;BME280;24370;51.986;4.666;2023-03-04T05:21:37;102723.84;;;11.65;45.79
38616;BME280;24370;51.986;4.666;2023-03-04T05:24:03;102732.13;;;11.93;45.54
38616;BME280;24370;51.986;4.666;2023-03-04T05:26:28;102718.91;;;12.50;44.48
38616;BME280;24370;51.986;4.666;2023-03-04T05:28:53;102729.31;;;11.81;45.76
38616;BME280;24370;51.986;4.666;2023-03-04T05:31:19;102730.56;;;12.04;45.44
38616;BME280;24370;51.986;4.666;2023-03-04T05:33:44;102721.19;;;11.62;46.73
38616;BME280;24370;51.986;4.666;2023-03-04T05:36:09;102727.63;;;11.83;46.05
38616;BME280;24370;51.986;4.666;2023-03-04T05:38:35;102720.38;;;12.26;45.17
38616;BME280;24370;51.986;4.666;2023-03-04T05:41:04;102717.38;;;12.67;44.73
38616;BME280;24370;51.986;4.666;2023-03-04T05:43:30;102726.72;;;12.45;44.98
38616;BME280;24370;51.986;4.666;2023-03-04T05:45:56;102730.00;;;12.27;45.91
38616;BME280;24370;51.986;4.666;2023-03-04T05:48:22;102731.59;;;11.59;47.34
38616;BME280;24370;51.986;4.666;2023-03-04T05:50:53;102728.25;;;11.66;48.51
38616;BME280;24370;51.986;4.666;2023-03-04T05:53:18;102719.66;;;11.77;49.08
38616;BME280;24370;51.986;4.666;2023-03-04T05:55:47;102719.84;;;11.34;49.08
38616;BME280;24370;51.986;4.666;2023-03-04T05:58:13;102718.25;;;11.44;50.00
38616;BME280;24370;51.986;4.666;2023-03-04T06:00:39;102715.84;;;11.56;49.68
38616;BME280;24370;51.986;4.666;2023-03-04T06:03:04;102715.25;;;12.35;47.45
38616;BME280;24370;51.986;4.666;2023-03-04T06:05:30;102714.31;;;12.30;47.73
38616;BME280;24370;51.986;4.666;2023-03-04T06:07:55;102717.25;;;11.92;48.49
38616;BME280;24370;51.986;4.666;2023-03-04T06:10:20;102717.47;;;12.06;47.71
38616;BME280;24370;51.986;4.666;2023-03-04T06:12:46;102721.56;;;11.87;48.32
38616;BME280;24370;51.986;4.666;2023-03-04T06:15:12;102717.06;;;12.39;47.21
38616;BME280;24370;51.986;4.666;2023-03-04T06:17:39;102718.81;;;11.79;49.07
38616;BME280;24370;51.986;4.666;2023-03-04T06:20:05;102708.22;;;11.71;50.13
38616;BME280;24370;51.986;4.666;2023-03-04T06:22:32;102722.28;;;11.77;48.85
38616;BME280;24370;51.986;4.666;2023-03-04T06:24:57;102712.00;;;12.58;47.21
38616;BME280;24370;51.986;4.666;2023-03-04T06:27:23;102718.41;;;12.10;48.61
38616;BME280;24370;51.986;4.666;2023-03-04T06:29:48;102721.94;;;12.87;47.15
38616;BME280;24370;51.986;4.666;2023-03-04T06:32:14;102721.69;;;12.64;47.26
38616;BME280;24370;51.986;4.666;2023-03-04T06:34:39;102722.28;;;12.36;47.55
38616;BME280;24370;51.986;4.666;2023-03-04T06:37:04;102721.16;;;12.94;46.44
38616;BME280;24370;51.986;4.666;2023-03-04T06:39:30;102710.47;;;12.76;46.77
38616;BME280;24370;51.986;4.666;2023-03-04T06:41:55;102717.03;;;13.19;45.21
38616;BME280;24370;51.986;4.666;2023-03-04T06:44:20;102721.72;;;13.54;44.35
38616;BME280;24370;51.986;4.666;2023-03-04T06:46:46;102715.13;;;13.03;45.91
38616;BME280;24370;51.986;4.666;2023-03-04T06:49:11;102724.03;;;13.19;45.11
38616;BME280;24370;51.986;4.666;2023-03-04T06:51:37;102730.31;;;13.36;44.29
38616;BME280;24370;51.986;4.666;2023-03-04T06:54:02;102729.47;;;13.40;44.40
38616;BME280;24370;51.986;4.666;2023-03-04T06:56:28;102731.31;;;13.49;44.11
38616;BME280;24370;51.986;4.666;2023-03-04T06:58:53;102726.59;;;13.13;45.29
38616;BME280;24370;51.986;4.666;2023-03-04T07:01:24;102733.69;;;13.23;45.48
38616;BME280;24370;51.986;4.666;2023-03-04T07:03:51;102719.81;;;13.36;45.05
38616;BME280;24370;51.986;4.666;2023-03-04T07:06:19;102736.09;;;13.01;45.70
38616;BME280;24370;51.986;4.666;2023-03-04T07:08:45;102734.06;;;13.63;43.67
38616;BME280;24370;51.986;4.666;2023-03-04T07:11:11;102729.78;;;12.82;45.82
38616;BME280;24370;51.986;4.666;2023-03-04T07:13:37;102741.81;;;13.48;44.56
38616;BME280;24370;51.986;4.666;2023-03-04T07:16:14;102741.94;;;13.65;43.96
38616;BME280;24370;51.986;4.666;2023-03-04T07:18:40;102736.00;;;13.89;43.69
38616;BME280;24370;51.986;4.666;2023-03-04T07:21:06;102746.28;;;13.58;44.30
38616;BME280;24370;51.986;4.666;2023-03-04T07:23:32;102748.00;;;12.70;46.69
38616;BME280;24370;51.986;4.666;2023-03-04T07:25:58;102752.34;;;12.66;47.67
38616;BME280;24370;51.986;4.666;2023-03-04T07:28:24;102765.59;;;11.56;49.90
38616;BME280;24370;51.986;4.666;2023-03-04T07:30:49;102771.59;;;10.57;55.22
38616;BME280;24370;51.986;4.666;2023-03-04T07:33:15;102769.78;;;11.45;52.21
38616;BME280;24370;51.986;4.666;2023-03-04T07:35:41;102762.97;;;12.11;53.21
38616;BME280;24370;51.986;4.666;2023-03-04T07:38:06;102761.16;;;12.71;51.51
38616;BME280;24370;51.986;4.666;2023-03-04T07:40:32;102762.66;;;12.51;50.85
38616;BME280;24370;51.986;4.666;2023-03-04T07:42:57;102766.09;;;11.87;52.62
38616;BME280;24370;51.986;4.666;2023-03-04T07:45:23;102777.28;;;12.33;51.36
38616;BME280;24370;51.986;4.666;2023-03-04T07:47:49;102764.84;;;12.89;51.00
38616;BME280;24370;51.986;4.666;2023-03-04T07:50:15;102765.38;;;12.57;51.00
38616;BME280;24370;51.986;4.666;2023-03-04T07:52:43;102761.53;;;13.05;49.68
38616;BME280;24370;51.986;4.666;2023-03-04T07:55:10;102767.41;;;13.73;48.57
38616;BME280;24370;51.986;4.666;2023-03-04T07:57:43;102779.59;;;12.78;49.84
38616;BME280;24370;51.986;4.666;2023-03-04T08:00:09;102783.13;;;13.67;48.69
38616;BME280;24370;51.986;4.666;2023-03-04T08:02:35;102782.63;;;13.15;49.35
38616;BME280;24370;51.986;4.666;2023-03-04T08:05:00;102789.88;;;12.62;51.59
38616;BME280;24370;51.986;4.666;2023-03-04T08:07:26;102780.00;;;14.18;48.45
38616;BME280;24370;51.986;4.666;2023-03-04T08:09:51;102781.00;;;13.29;50.83
38616;BME280;24370;51.986;4.666;2023-03-04T08:12:17;102783.41;;;14.09;48.51
38616;BME280;24370;51.986;4.666;2023-03-04T08:14:42;102795.09;;;12.58;52.29
38616;BME280;24370;51.986;4.666;2023-03-04T08:17:07;102775.63;;;13.14;50.46
38616;BME280;24370;51.986;4.666;2023-03-04T08:19:34;102780.59;;;12.89;51.07
38616;BME280;24370;51.986;4.666;2023-03-04T08:22:00;102782.84;;;13.36;49.97
38616;BME280;24370;51.986;4.666;2023-03-04T08:24:26;102781.59;;;13.00;51.09
38616;BME280;24370;51.986;4.666;2023-03-04T08:26:51;102779.06;;;13.10;50.25
38616;BME280;24370;51.986;4.666;2023-03-04T08:29:20;102777.91;;;13.70;48.99
38616;BME280;24370;51.986;4.666;2023-03-04T08:31:47;102787.03;;;14.22;47.89
38616;BME280;24370;51.986;4.666;2023-03-04T08:34:12;102778.91;;;13.86;47.54
38616;BME280;24370;51.986;4.666;2023-03-04T08:36:40;102783.69;;;14.60;46.78
38616;BME280;24370;51.986;4.666;2023-03-04T08:39:07;102778.41;;;14.60;46.22
38616;BME280;24370;51.986;4.666;2023-03-04T08:41:33;102782.63;;;14.18;47.08
38616;BME280;24370;51.986;4.666;2023-03-04T08:43:59;102778.00;;;13.86;47.81
38616;BME280;24370;51.986;4.666;2023-03-04T08:46:24;102772.25;;;14.50;48.01
38616;BME280;24370;51.986;4.666;2023-03-04T08:48:50;102771.63;;;15.55;45.00
38616;BME280;24370;51.986;4.666;2023-03-04T08:51:15;102765.50;;;15.87;44.11
38616;BME280;24370;51.986;4.666;2023-03-04T08:53:41;102768.09;;;15.13;45.18
38616;BME280;24370;51.986;4.666;2023-03-04T08:56:08;102773.50;;;13.69;47.84
38616;BME280;24370;51.986;4.666;2023-03-04T08:58:33;102765.09;;;13.14;50.28
38616;BME280;24370;51.986;4.666;2023-03-04T09:00:59;102772.63;;;13.66;48.41
38616;BME280;24370;51.986;4.666;2023-03-04T09:03:26;102766.06;;;14.39;47.52
38616;BME280;24370;51.986;4.666;2023-03-04T09:05:51;102762.38;;;14.04;48.09
38616;BME280;24370;51.986;4.666;2023-03-04T09:08:17;102765.09;;;13.14;51.45
38616;BME280;24370;51.986;4.666;2023-03-04T09:10:43;102764.75;;;12.80;50.93
38616;BME280;24370;51.986;4.666;2023-03-04T09:13:10;102772.28;;;11.92;54.92
38616;BME280;24370;51.986;4.666;2023-03-04T09:15:37;102771.59;;;12.65;54.30
38616;BME280;24370;51.986;4.666;2023-03-04T09:18:08;102759.31;;;12.64;52.75
38616;BME280;24370;51.986;4.666;2023-03-04T09:20:34;102766.41;;;12.71;53.26
38616;BME280;24370;51.986;4.666;2023-03-04T09:22:59;102763.38;;;13.16;52.94
38616;BME280;24370;51.986;4.666;2023-03-04T09:25:25;102765.94;;;14.16;50.40
38616;BME280;24370;51.986;4.666;2023-03-04T09:27:50;102762.53;;;14.35;48.10
38616;BME280;24370;51.986;4.666;2023-03-04T09:30:16;102762.63;;;14.60;47.96
38616;BME280;24370;51.986;4.666;2023-03-04T09:32:42;102755.34;;;14.06;49.50
38616;BME280;24370;51.986;4.666;2023-03-04T09:35:07;102760.59;;;14.00;50.76
38616;BME280;24370;51.986;4.666;2023-03-04T09:37:34;102750.13;;;13.03;52.77
38616;BME280;24370;51.986;4.666;2023-03-04T09:39:59;102757.03;;;13.90;50.47
38616;BME280;24370;51.986;4.666;2023-03-04T09:42:34;102752.56;;;13.79;50.95
38616;BME280;24370;51.986;4.666;2023-03-04T09:45:02;102746.78;;;14.48;49.03
38616;BME280;24370;51.986;4.666;2023-03-04T09:47:28;102748.22;;;13.81;49.97
38616;BME280;24370;51.986;4.666;2023-03-04T09:50:00;102753.63;;;14.12;51.06
38616;BME280;24370;51.986;4.666;2023-03-04T09:55:31;102758.78;;;12.96;58.87
38616;BME280;24370;51.986;4.666;2023-03-04T10:01:11;102757.00;;;12.92;59.61
38616;BME280;24370;51.986;4.666;2023-03-04T10:06:17;102761.09;;;12.65;62.87
38616;BME280;24370;51.986;4.666;2023-03-04T10:09:12;102761.97;;;13.50;61.54
38616;BME280;24370;51.986;4.666;2023-03-04T10:12:33;102761.53;;;13.05;62.34
38616;BME280;24370;51.986;4.666;2023-03-04T10:14:48;102761.31;;;13.79;60.76
38616;BME280;24370;51.986;4.666;2023-03-04T10:17:37;102763.50;;;12.51;66.58
38616;BME280;24370;51.986;4.666;2023-03-04T10:22:53;102756.13;;;13.87;61.43
38616;BME280;24370;51.986;4.666;2023-03-04T10:25:25;102749.91;;;13.76;59.49
38616;BME280;24370;51.986;4.666;2023-03-04T10:28:03;102754.25;;;13.69;60.88
38616;BME280;24370;51.986;4.666;2023-03-04T10:33:21;102743.13;;;14.15;61.15
38616;BME280;24370;51.986;4.666;2023-03-04T10:35:59;102747.53;;;14.17;58.13
38616;BME280;24370;51.986;4.666;2023-03-04T10:38:29;102741.69;;;14.85;56.75
38616;BME280;24370;51.986;4.666;2023-03-04T10:40:57;102742.03;;;13.77;58.37
38616;BME280;24370;51.986;4.666;2023-03-04T10:43:22;102743.03;;;13.96;57.96
38616;BME280;24370;51.986;4.666;2023-03-04T10:45:54;102744.22;;;14.60;55.77
38616;BME280;24370;51.986;4.666;2023-03-04T10:48:26;102734.72;;;15.18;53.12
38616;BME280;24370;51.986;4.666;2023-03-04T10:50:52;102729.41;;;16.04;51.57
38616;BME280;24370;51.986;4.666;2023-03-04T10:53:28;102735.00;;;13.74;54.37
38616;BME280;24370;51.986;4.666;2023-03-04T10:55:54;102736.38;;;13.34;55.07
38616;BME280;24370;51.986;4.666;2023-03-04T10:58:20;102724.06;;;14.59;51.64
38616;BME280;24370;51.986;4.666;2023-03-04T11:01:02;102726.72;;;14.70;51.48
38616;BME280;24370;51.986;4.666;2023-03-04T11:03:34;102722.88;;;13.94;51.71
38616;BME280;24370;51.986;4.666;2023-03-04T11:06:09;102718.88;;;14.74;51.66
38616;BME280;24370;51.986;4.666;2023-03-04T11:08:35;102712.75;;;15.08;49.82
38616;BME280;24370;51.986;4.666;2023-03-04T11:11:00;102716.28;;;15.16;48.00
38616;BME280;24370;51.986;4.666;2023-03-04T11:13:26;102709.28;;;15.41;47.70
38616;BME280;24370;51.986;4.666;2023-03-04T11:18:30;102716.16;;;14.59;50.89
38616;BME280;24370;51.986;4.666;2023-03-04T11:20:59;102705.25;;;13.77;53.84
38616;BME280;24370;51.986;4.666;2023-03-04T11:24:02;102719.88;;;13.41;56.16
38616;BME280;24370;51.986;4.666;2023-03-04T11:29:23;102722.72;;;12.77;60.81
38616;BME280;24370;51.986;4.666;2023-03-04T11:31:52;102714.72;;;12.64;64.24
38616;BME280;24370;51.986;4.666;2023-03-04T11:34:49;102711.75;;;13.16;60.53
38616;BME280;24370;51.986;4.666;2023-03-04T11:37:29;102708.88;;;14.04;57.60
38616;BME280;24370;51.986;4.666;2023-03-04T11:40:00;102716.69;;;13.87;55.33
38616;BME280;24370;51.986;4.666;2023-03-04T11:45:04;102700.34;;;13.16;58.17
38616;BME280;24370;51.986;4.666;2023-03-04T11:53:18;102688.94;;;14.57;52.91
38616;BME280;24370;51.986;4.666;2023-03-04T11:56:18;102689.06;;;15.19;50.72
38616;BME280;24370;51.986;4.666;2023-03-04T12:02:12;102693.38;;;13.15;59.64
38616;BME280;24370;51.986;4.666;2023-03-04T12:10:27;102674.88;;;14.42;57.20
38616;BME280;24370;51.986;4.666;2023-03-04T12:13:21;102692.88;;;13.61;57.81
38616;BME280;24370;51.986;4.666;2023-03-04T12:18:23;102675.72;;;14.29;56.15
38616;BME280;24370;51.986;4.666;2023-03-04T12:26:24;102662.56;;;14.35;54.47
38616;BME280;24370;51.986;4.666;2023-03-04T12:29:08;102660.56;;;13.82;56.38
38616;BME280;24370;51.986;4.666;2023-03-04T12:31:44;102650.44;;;14.71;54.35
38616;BME280;24370;51.986;4.666;2023-03-04T12:37:06;102634.91;;;16.76;47.33
38616;BME280;24370;51.986;4.666;2023-03-04T12:42:37;102643.38;;;15.54;48.50
38616;BME280;24370;51.986;4.666;2023-03-04T12:45:31;102632.78;;;14.49;50.32
38616;BME280;24370;51.986;4.666;2023-03-04T12:48:21;102633.75;;;15.06;47.61
38616;BME280;24370;51.986;4.666;2023-03-04T12:51:01;102632.88;;;14.95;49.50
38616;BME280;24370;51.986;4.666;2023-03-04T12:56:01;102630.19;;;14.58;48.25
38616;BME280;24370;51.986;4.666;2023-03-04T12:58:32;102623.25;;;15.14;47.95
38616;BME280;24370;51.986;4.666;2023-03-04T13:01:17;102627.59;;;14.64;48.13
38616;BME280;24370;51.986;4.666;2023-03-04T13:09:57;102622.28;;;14.56;47.90
38616;BME280;24370;51.986;4.666;2023-03-04T13:12:25;102616.22;;;15.02;46.22
38616;BME280;24370;51.986;4.666;2023-03-04T13:22:45;102610.06;;;15.03;44.83
38616;BME280;24370;51.986;4.666;2023-03-04T13:43:46;102594.25;;;14.72;44.96
38616;BME280;24370;51.986;4.666;2023-03-04T13:51:24;102585.97;;;16.30;43.03
38616;BME280;24370;51.986;4.666;2023-03-04T13:56:34;102594.22;;;14.54;45.85
38616;BME280;24370;51.986;4.666;2023-03-04T14:06:44;102586.31;;;15.39;44.31
38616;BME280;24370;51.986;4.666;2023-03-04T14:09:24;102577.59;;;14.92;45.05
38616;BME280;24370;51.986;4.666;2023-03-04T14:11:51;102581.88;;;14.28;44.45
38616;BME280;24370;51.986;4.666;2023-03-04T14:14:21;102571.28;;;15.83;42.63
38616;BME280;24370;51.986;4.666;2023-03-04T14:16:56;102565.94;;;15.98;41.35
38616;BME280;24370;51.986;4.666;2023-03-04T14:19:37;102564.25;;;15.72;40.45
38616;BME280;24370;51.986;4.666;2023-03-04T14:22:21;102576.72;;;15.08;43.17
38616;BME280;24370;51.986;4.666;2023-03-04T14:25:01;102562.56;;;15.53;42.28
38616;BME280;24370;51.986;4.666;2023-03-04T14:27:28;102574.94;;;15.10;43.00
38616;BME280;24370;51.986;4.666;2023-03-04T14:29:58;102580.16;;;14.36;45.40
38616;BME280;24370;51.986;4.666;2023-03-04T14:32:25;102572.31;;;15.17;44.66
38616;BME280;24370;51.986;4.666;2023-03-04T14:35:06;102571.38;;;14.40;46.45
38616;BME280;24370;51.986;4.666;2023-03-04T14:37:42;102581.91;;;14.34;47.25
38616;BME280;24370;51.986;4.666;2023-03-04T14:40:23;102569.38;;;13.65;49.30
38616;BME280;24370;51.986;4.666;2023-03-04T14:42:54;102584.06;;;13.31;50.53